createdAt,value
2023-04-02T00:00:51.937Z,50.33
2023-04-02T00:01:51.640Z,51.25
2023-04-02T00:33:41.369Z,51.69
2023-04-02T00:51:39.775Z,49.71
2023-04-02T00:55:49.466Z,48.71
2023-04-02T01:03:20.208Z,49.41
2023-04-02T01:04:20.002Z,51.96
2023-04-02T01:05:20.258Z,49.98
2023-04-02T01:06:20.007Z,51.58
2023-04-02T01:07:19.993Z,50.87
2023-04-02T01:08:19.944Z,49.15
2023-04-02T01:13:56.262Z,47.07
2023-04-02T01:14:56.208Z,47.10
2023-04-02T01:15:56.124Z,51.76
2023-04-02T01:16:56.219Z,52.18
2023-04-02T01:17:56.055Z,49.32
2023-04-02T01:18:56.424Z,49.94
2023-04-02T01:19:56.012Z,51.09
2023-04-02T01:20:56.110Z,48.43
2023-04-02T01:22:29.064Z,51.35
2023-04-02T01:22:55.996Z,49.59
2023-04-02T01:23:56.029Z,48.87
2023-04-02T01:24:56.173Z,49.85
2023-04-02T01:25:56.185Z,48.31
2023-04-02T01:26:56.108Z,51.22
2023-04-02T01:27:56.209Z,49.46
2023-04-02T01:28:56.076Z,51.03
2023-04-02T01:29:56.075Z,51.13
2023-04-02T01:30:56.377Z,51.96
2023-04-02T01:31:56.026Z,51.08
2023-04-02T01:32:56.082Z,49.80
2023-04-02T01:33:56.011Z,52.10
2023-04-02T01:34:56.032Z,49.84
2023-04-02T01:35:56.620Z,50.70
2023-04-02T01:36:56.075Z,52.55
2023-04-02T01:37:56.072Z,50.68
2023-04-02T01:38:56.054Z,49.37
2023-04-02T01:39:55.972Z,49.91
2023-04-02T01:40:56.047Z,50.69
2023-04-02T01:41:56.387Z,52.89
2023-04-02T01:45:55.602Z,48.04
2023-04-02T01:46:55.545Z,48.11
2023-04-02T01:47:55.434Z,49.49
2023-04-02T01:48:55.352Z,51.42
2023-04-02T01:49:55.424Z,50.68
2023-04-02T01:50:56.133Z,49.07
2023-04-02T01:51:55.377Z,49.86
2023-04-02T01:52:55.450Z,50.06
2023-04-02T01:53:55.360Z,49.64
2023-04-02T01:54:55.717Z,52.80
2023-04-02T01:55:55.358Z,51.40
2023-04-02T01:56:55.434Z,49.60
2023-04-02T01:57:55.477Z,52.39
2023-04-02T01:58:55.388Z,51.89
2023-04-02T01:59:55.391Z,51.83
2023-04-02T02:00:55.356Z,52.10
2023-04-02T02:01:55.355Z,51.89
2023-04-02T02:02:55.386Z,52.41
2023-04-02T02:03:55.583Z,52.06
2023-04-02T02:05:06.605Z,50.77
2023-04-02T02:09:05.035Z,50.68
2023-04-02T02:10:04.770Z,52.56
2023-04-02T02:11:04.591Z,51.59
2023-04-02T02:12:04.614Z,49.70
2023-04-02T02:13:37.710Z,51.53
2023-04-02T02:14:37.540Z,50.26
2023-04-02T02:15:04.967Z,51.55
2023-04-02T02:16:36.995Z,52.18
2023-04-02T02:17:04.637Z,50.85
2023-04-02T02:18:04.646Z,52.53
2023-04-02T02:19:04.712Z,51.54
2023-04-02T02:20:36.588Z,53.09
2023-04-02T02:21:04.626Z,54.66
2023-04-02T02:22:04.583Z,52.08
2023-04-02T02:26:41.202Z,52.71
2023-04-02T02:27:41.136Z,50.90
2023-04-02T02:28:41.163Z,52.64
2023-04-02T02:29:41.132Z,51.04
2023-04-02T02:30:41.126Z,52.42
2023-04-02T02:31:41.240Z,52.29
2023-04-02T02:32:41.383Z,53.58
2023-04-02T02:33:41.008Z,52.14
2023-04-02T02:34:40.966Z,52.73
2023-04-02T02:35:41.110Z,49.48
2023-04-02T02:36:41.337Z,50.87
2023-04-02T02:37:41.103Z,49.97
2023-04-02T02:38:40.974Z,50.16
2023-04-02T02:39:40.907Z,52.62
2023-04-02T02:40:41.028Z,52.72
2023-04-02T02:41:41.044Z,52.69
2023-04-02T02:42:41.021Z,52.40
2023-04-02T02:43:41.083Z,50.57
2023-04-02T02:44:40.955Z,50.04
2023-04-02T02:45:41.337Z,51.32
2023-04-02T02:46:41.085Z,54.50
2023-04-02T02:47:41.066Z,52.17
2023-04-02T02:48:41.021Z,52.96
2023-04-02T02:49:41.005Z,49.77
2023-04-02T02:50:41.080Z,49.61
2023-04-02T02:51:40.951Z,51.20
2023-04-02T02:52:40.879Z,51.27
2023-04-02T02:53:40.950Z,51.16
2023-04-02T02:54:40.945Z,51.35
2023-04-02T02:55:40.823Z,52.31
2023-04-02T02:56:40.984Z,52.95
2023-04-02T03:04:23.621Z,51.27
2023-04-02T03:05:23.554Z,53.16
2023-04-02T03:06:49.569Z,51.88
2023-04-02T03:10:22.428Z,52.06
2023-04-02T03:11:25.073Z,51.47
2023-04-02T03:12:23.492Z,50.82
2023-04-02T03:13:21.972Z,51.86
2023-04-02T03:14:21.953Z,54.46
2023-04-02T03:15:22.067Z,51.32
2023-04-02T03:16:22.057Z,50.25
2023-04-02T03:17:21.905Z,52.07
2023-04-02T03:18:21.997Z,52.56
2023-04-02T03:19:21.909Z,52.50
2023-04-02T03:20:21.818Z,53.39
2023-04-02T03:21:21.889Z,53.76
2023-04-02T03:22:21.941Z,50.49
2023-04-02T03:23:21.990Z,53.55
2023-04-02T03:24:21.914Z,51.99
2023-04-02T03:25:21.907Z,51.95
2023-04-02T03:26:21.864Z,51.78
2023-04-02T03:27:22.228Z,53.71
2023-04-02T03:28:21.825Z,52.39
2023-04-02T03:29:21.977Z,50.55
2023-04-02T03:30:21.897Z,50.88
2023-04-02T03:31:22.025Z,51.67
2023-04-02T03:32:21.810Z,50.43
2023-04-02T03:33:21.935Z,51.76
2023-04-02T03:34:21.900Z,53.07
2023-04-02T03:35:22.322Z,49.41
2023-04-02T03:36:21.843Z,52.76
2023-04-02T03:37:21.780Z,54.57
2023-04-02T03:38:22.234Z,50.50
2023-04-02T03:39:21.862Z,53.06
2023-04-02T03:40:21.748Z,51.28
2023-04-02T03:41:21.785Z,52.62
2023-04-02T03:42:21.747Z,51.83
2023-04-02T03:43:21.842Z,53.74
2023-04-02T03:44:21.828Z,52.66
2023-04-02T03:45:21.768Z,54.80
2023-04-02T03:46:21.849Z,52.48
2023-04-02T03:47:21.812Z,52.65
2023-04-02T03:48:21.726Z,51.00
2023-04-02T03:49:21.824Z,50.33
2023-04-02T03:50:21.729Z,52.28
2023-04-02T03:51:21.737Z,54.12
2023-04-02T03:52:22.065Z,51.60
2023-04-02T03:53:21.669Z,51.62
2023-04-02T03:54:21.811Z,52.74
2023-04-02T03:55:21.800Z,50.69
2023-04-02T03:56:21.594Z,53.03
2023-04-02T03:57:21.621Z,50.99
2023-04-02T03:58:22.200Z,49.78
2023-04-02T03:59:21.599Z,51.30
2023-04-02T04:00:21.612Z,52.53
2023-04-02T04:01:21.603Z,52.96
2023-04-02T04:02:21.766Z,52.25
2023-04-02T04:03:21.691Z,51.61
2023-04-02T04:04:21.584Z,52.55
2023-04-02T04:05:21.655Z,53.49
2023-04-02T04:06:21.623Z,52.90
2023-04-02T04:07:21.910Z,52.71
2023-04-02T04:08:21.633Z,54.38
2023-04-02T04:09:21.626Z,53.32
2023-04-02T04:10:21.668Z,55.33
2023-04-02T04:11:21.707Z,56.00
2023-04-02T04:12:21.579Z,54.68
2023-04-02T04:13:21.599Z,56.39
2023-04-02T04:14:21.564Z,53.81
2023-04-02T04:15:21.646Z,52.75
2023-04-02T04:16:21.540Z,54.66
2023-04-02T04:17:21.468Z,55.39
2023-04-02T04:18:21.602Z,58.37
2023-04-02T04:19:21.447Z,56.71
2023-04-02T04:20:21.520Z,58.62
2023-04-02T04:21:21.706Z,58.39
2023-04-02T04:22:21.563Z,58.61
2023-04-02T04:23:21.625Z,57.21
2023-04-02T04:24:21.458Z,55.01
2023-04-02T04:25:53.449Z,55.47
2023-04-02T04:26:21.530Z,55.85
2023-04-02T04:27:21.520Z,55.33
2023-04-02T04:28:21.528Z,54.18
2023-04-02T04:29:21.470Z,56.17
2023-04-02T04:30:22.474Z,54.83
2023-04-02T04:31:23.930Z,55.17
2023-04-02T04:32:21.441Z,55.34
2023-04-02T04:33:39.625Z,53.83
2023-04-02T04:34:21.392Z,55.07
2023-04-02T04:35:21.419Z,52.37
2023-04-02T04:36:21.385Z,52.73
2023-04-02T04:37:21.421Z,53.87
2023-04-02T04:38:21.417Z,54.42
2023-04-02T04:39:21.528Z,56.83
2023-04-02T04:40:21.446Z,56.46
2023-04-02T04:41:21.359Z,56.93
2023-04-02T04:42:21.711Z,57.16
2023-04-02T04:43:21.710Z,58.15
2023-04-02T04:44:21.410Z,58.78
2023-04-02T04:45:21.405Z,60.18
2023-04-02T04:46:21.549Z,59.01
2023-04-02T04:47:21.364Z,58.53
2023-04-02T04:48:21.509Z,58.23
2023-04-02T04:49:21.324Z,58.88
2023-04-02T04:50:21.282Z,60.97
2023-04-02T04:51:21.267Z,59.85
2023-04-02T04:52:21.353Z,59.09
2023-04-02T04:53:21.315Z,60.29
2023-04-02T04:54:21.693Z,59.08
2023-04-02T04:55:21.279Z,59.91
2023-04-02T04:56:21.316Z,59.73
2023-04-02T04:57:21.314Z,59.92
2023-04-02T04:58:21.305Z,59.95
2023-04-02T04:59:21.609Z,60.41
2023-04-02T05:00:21.252Z,60.15
2023-04-02T05:01:21.282Z,60.42
2023-04-02T05:02:21.232Z,58.80
2023-04-02T05:03:21.235Z,59.71
2023-04-02T05:04:21.298Z,60.42
2023-04-02T05:05:21.354Z,59.23
2023-04-02T05:06:21.203Z,59.29
2023-04-02T05:07:21.126Z,59.71
2023-04-02T05:08:21.181Z,58.87
2023-04-02T05:09:21.276Z,57.38
2023-04-02T05:10:21.157Z,56.93
2023-04-02T05:11:21.130Z,56.75
2023-04-02T05:12:21.156Z,55.80
2023-04-02T05:13:21.099Z,56.29
2023-04-02T05:14:21.087Z,57.14
2023-04-02T05:15:21.542Z,58.54
2023-04-02T05:16:21.171Z,57.78
2023-04-02T05:17:21.243Z,57.21
2023-04-02T05:18:21.103Z,57.16
2023-04-02T05:19:21.214Z,58.20
2023-04-02T05:20:21.109Z,56.56
2023-04-02T05:21:21.156Z,57.56
2023-04-02T05:22:21.139Z,58.44
2023-04-02T05:23:21.093Z,57.39
2023-04-02T05:24:21.080Z,56.63
2023-04-02T05:25:21.097Z,55.65
2023-04-02T05:26:21.414Z,56.17
2023-04-02T05:27:21.078Z,56.34
2023-04-02T05:28:21.074Z,55.51
2023-04-02T05:29:20.946Z,58.09
2023-04-02T05:30:20.936Z,56.56
2023-04-02T05:31:21.617Z,52.84
2023-04-02T05:32:20.990Z,53.87
2023-04-02T05:33:20.979Z,56.68
2023-04-02T05:34:20.969Z,59.89
2023-04-02T05:35:20.985Z,57.18
2023-04-02T05:36:20.953Z,56.27
2023-04-02T05:37:20.940Z,57.44
2023-04-02T05:38:20.972Z,57.48
2023-04-02T05:39:20.970Z,56.92
2023-04-02T05:40:20.989Z,56.22
2023-04-02T05:41:20.943Z,56.80
2023-04-02T05:42:20.977Z,58.14
2023-04-02T05:43:21.272Z,58.97
2023-04-02T05:44:20.979Z,60.51
2023-04-02T05:45:20.942Z,61.06
2023-04-02T05:46:20.947Z,57.75
2023-04-02T05:47:20.949Z,57.17
2023-04-02T05:48:21.523Z,55.87
2023-04-02T05:49:20.904Z,54.47
2023-04-02T05:50:20.955Z,55.98
2023-04-02T05:51:20.931Z,57.47
2023-04-02T05:52:20.954Z,55.53
2023-04-02T05:53:21.020Z,56.45
2023-04-02T05:54:20.820Z,55.91
2023-04-02T05:55:20.806Z,57.50
2023-04-02T05:56:20.882Z,57.98
2023-04-02T05:57:23.158Z,58.24
2023-04-02T05:58:35.310Z,58.10
2023-04-02T05:59:22.865Z,56.74
2023-04-02T06:00:20.752Z,55.99
2023-04-02T06:01:21.021Z,57.67
2023-04-02T06:02:20.915Z,56.21
2023-04-02T06:03:20.851Z,58.21
2023-04-02T06:04:20.824Z,59.99
2023-04-02T06:05:20.837Z,56.56
2023-04-02T06:06:20.807Z,54.38
2023-04-02T06:07:20.817Z,52.78
2023-04-02T06:08:21.115Z,54.79
2023-04-02T06:09:21.084Z,55.46
2023-04-02T06:10:24.234Z,54.61
2023-04-02T06:11:20.810Z,54.25
2023-04-02T06:12:20.831Z,55.13
2023-04-02T06:13:20.747Z,54.72
2023-04-02T06:14:41.871Z,55.01
2023-04-02T06:15:20.677Z,54.89
2023-04-02T06:16:20.690Z,52.65
2023-04-02T06:17:20.740Z,55.02
2023-04-02T06:18:20.641Z,54.32
2023-04-02T06:19:20.766Z,55.25
2023-04-02T06:20:20.856Z,56.99
2023-04-02T06:21:20.702Z,56.76
2023-04-02T06:22:20.969Z,57.86
2023-04-02T06:23:20.747Z,55.70
2023-04-02T06:24:20.661Z,57.07
2023-04-02T06:25:21.205Z,60.86
2023-04-02T06:26:20.720Z,57.80
2023-04-02T06:27:20.712Z,57.56
2023-04-02T06:28:20.688Z,59.03
2023-04-02T06:29:20.640Z,57.64
2023-04-02T06:30:20.601Z,58.33
2023-04-02T06:31:20.741Z,58.34
2023-04-02T06:32:20.557Z,58.12
2023-04-02T06:33:20.579Z,56.44
2023-04-02T06:34:20.662Z,59.22
2023-04-02T06:35:20.577Z,57.23
2023-04-02T06:36:20.636Z,58.48
2023-04-02T06:37:20.488Z,57.87
2023-04-02T06:38:20.677Z,58.31
2023-04-02T06:39:20.708Z,56.81
2023-04-02T06:40:20.677Z,56.78
2023-04-02T06:41:20.750Z,58.51
2023-04-02T06:42:20.590Z,56.75
2023-04-02T06:43:20.703Z,59.39
2023-04-02T06:44:20.565Z,58.18
2023-04-02T06:45:20.583Z,58.17
2023-04-02T06:46:20.648Z,58.10
2023-04-02T06:47:20.857Z,57.74
2023-04-02T06:48:20.569Z,60.17
2023-04-02T06:49:20.464Z,59.93
2023-04-02T06:50:20.536Z,61.64
2023-04-02T06:51:20.511Z,60.71
2023-04-02T06:52:20.669Z,61.01
2023-04-02T06:53:20.801Z,61.98
2023-04-02T06:54:20.410Z,61.95
2023-04-02T06:55:20.505Z,61.85
2023-04-02T06:56:20.419Z,59.65
2023-04-02T06:57:20.604Z,59.85
2023-04-02T06:58:20.545Z,60.13
2023-04-02T06:59:20.485Z,58.68
2023-04-02T07:00:20.507Z,62.37
2023-04-02T07:01:20.809Z,59.44
2023-04-02T07:02:20.530Z,59.97
2023-04-02T07:03:20.465Z,60.47
2023-04-02T07:04:20.519Z,61.56
2023-04-02T07:05:20.420Z,59.53
2023-04-02T07:06:20.540Z,61.69
2023-04-02T07:07:20.412Z,60.81
2023-04-02T07:08:20.368Z,59.56
2023-04-02T07:09:20.342Z,59.59
2023-04-02T07:10:20.330Z,61.10
2023-04-02T07:11:20.978Z,60.28
2023-04-02T07:12:21.539Z,60.70
2023-04-02T07:13:20.374Z,56.92
2023-04-02T07:14:20.418Z,58.53
2023-04-02T07:15:20.342Z,59.18
2023-04-02T07:16:20.352Z,57.36
2023-04-02T07:17:20.342Z,59.21
2023-04-02T07:18:20.640Z,59.51
2023-04-02T07:19:20.342Z,58.41
2023-04-02T07:20:20.376Z,58.70
2023-04-02T07:21:20.304Z,57.62
2023-04-02T07:22:20.350Z,60.74
2023-04-02T07:23:20.416Z,58.37
2023-04-02T07:24:20.338Z,56.55
2023-04-02T07:25:20.348Z,58.54
2023-04-02T07:26:20.201Z,60.57
2023-04-02T07:27:20.162Z,59.92
2023-04-02T07:28:22.000Z,61.63
2023-04-02T07:29:20.141Z,62.85
2023-04-02T07:30:20.145Z,64.23
2023-04-02T07:31:20.184Z,58.83
2023-04-02T07:32:20.140Z,59.72
2023-04-02T07:33:20.218Z,61.24
2023-04-02T07:34:20.106Z,61.79
2023-04-02T07:35:20.557Z,61.00
2023-04-02T07:36:20.256Z,59.06
2023-04-02T07:37:20.155Z,58.14
2023-04-02T07:38:20.188Z,57.68
2023-04-02T07:39:20.107Z,56.95
2023-04-02T07:40:20.112Z,59.08
2023-04-02T07:41:20.176Z,60.99
2023-04-02T07:42:20.193Z,59.01
2023-04-02T07:43:20.143Z,59.88
2023-04-02T07:44:20.109Z,59.20
2023-04-02T07:45:21.097Z,59.12
2023-04-02T07:46:20.484Z,57.84
2023-04-02T07:47:20.176Z,55.84
2023-04-02T07:48:20.209Z,54.56
2023-04-02T07:49:20.101Z,54.80
2023-04-02T07:50:20.015Z,56.65
2023-04-02T07:51:20.105Z,58.69
2023-04-02T07:52:20.145Z,57.61
2023-04-02T07:53:20.224Z,58.65
2023-04-02T07:54:20.004Z,59.59
2023-04-02T07:55:19.989Z,58.01
2023-04-02T07:56:20.044Z,58.28
2023-04-02T07:57:19.983Z,57.60
2023-04-02T07:58:20.031Z,56.84
2023-04-02T07:59:20.272Z,56.98
2023-04-02T08:00:19.987Z,56.76
2023-04-02T08:01:20.044Z,58.09
2023-04-02T08:02:20.306Z,58.00
2023-04-02T08:03:20.118Z,58.73
2023-04-02T08:04:20.014Z,56.00
2023-04-02T08:05:20.128Z,58.14
2023-04-02T08:06:19.992Z,57.00
2023-04-02T08:07:19.973Z,55.96
2023-04-02T08:08:20.005Z,57.08
2023-04-02T08:09:20.103Z,59.30
2023-04-02T08:10:19.944Z,62.00
2023-04-02T08:11:20.080Z,61.22
2023-04-02T08:12:19.986Z,59.09
2023-04-02T08:13:19.943Z,59.13
2023-04-02T08:14:19.836Z,57.94
2023-04-02T08:15:19.955Z,60.04
2023-04-02T08:16:19.837Z,61.15
2023-04-02T08:17:19.820Z,61.53
2023-04-02T08:18:19.791Z,61.05
2023-04-02T08:19:19.927Z,60.12
2023-04-02T08:20:19.760Z,61.08
2023-04-02T08:21:19.782Z,61.65
2023-04-02T08:22:19.869Z,60.45
2023-04-02T08:23:19.863Z,60.83
2023-04-02T08:24:19.980Z,58.67
2023-04-02T08:25:19.887Z,58.84
2023-04-02T08:26:20.022Z,58.85
2023-04-02T08:27:19.935Z,59.10
2023-04-02T08:28:19.906Z,57.26
2023-04-02T08:29:19.934Z,57.53
2023-04-02T08:30:19.901Z,55.51
2023-04-02T08:31:20.144Z,55.70
2023-04-02T08:32:19.873Z,59.41
2023-04-02T08:33:19.795Z,60.83
2023-04-02T08:34:19.942Z,59.63
2023-04-02T08:35:19.765Z,57.40
2023-04-02T08:36:20.734Z,57.73
2023-04-02T08:37:19.670Z,56.56
2023-04-02T08:38:19.898Z,56.33
2023-04-02T08:39:19.685Z,58.47
2023-04-02T08:40:19.845Z,59.02
2023-04-02T08:41:19.798Z,57.05
2023-04-02T08:42:19.865Z,58.18
2023-04-02T08:43:21.204Z,59.57
2023-04-02T08:44:19.996Z,60.02
2023-04-02T08:45:25.107Z,59.05
2023-04-02T08:46:21.713Z,58.78
2023-04-02T08:47:19.710Z,59.15
2023-04-02T08:48:19.694Z,58.10
2023-04-02T08:49:19.736Z,57.28
2023-04-02T08:50:19.688Z,59.84
2023-04-02T08:51:19.736Z,59.76
2023-04-02T08:52:19.797Z,60.61
2023-04-02T08:53:19.659Z,59.41
2023-04-02T08:54:19.688Z,59.21
2023-04-02T08:55:19.618Z,58.73
2023-04-02T08:56:19.684Z,59.62
2023-04-02T08:57:19.942Z,58.54
2023-04-02T08:58:19.624Z,59.13
2023-04-02T08:59:19.848Z,60.05
2023-04-02T09:00:19.489Z,58.98
2023-04-02T09:01:19.537Z,59.45
2023-04-02T09:02:19.529Z,58.01
2023-04-02T09:03:19.779Z,58.69
2023-04-02T09:04:20.513Z,57.48
2023-04-02T09:05:19.497Z,57.68
2023-04-02T09:06:19.774Z,57.24
2023-04-02T09:07:19.789Z,56.09
2023-04-02T09:08:19.565Z,58.79
2023-04-02T09:09:19.619Z,59.12
2023-04-02T09:10:19.574Z,58.46
2023-04-02T09:11:19.608Z,59.61
2023-04-02T09:12:20.216Z,58.45
2023-04-02T09:13:19.549Z,58.07
2023-04-02T09:14:20.024Z,58.40
2023-04-02T09:15:19.599Z,59.74
2023-04-02T09:16:19.622Z,59.54
2023-04-02T09:17:19.853Z,58.58
2023-04-02T09:18:19.614Z,57.96
2023-04-02T09:19:19.592Z,57.66
2023-04-02T09:20:19.882Z,58.68
2023-04-02T09:21:19.531Z,58.27
2023-04-02T09:22:20.072Z,58.31
2023-04-02T09:23:20.099Z,57.19
2023-04-02T09:24:20.125Z,59.67
2023-04-02T09:25:19.983Z,58.47
2023-04-02T09:26:20.034Z,58.55
2023-04-02T09:27:20.100Z,58.80
2023-04-02T09:28:20.037Z,58.49
2023-04-02T09:29:19.994Z,58.86
2023-04-02T09:30:20.444Z,59.09
2023-04-02T09:31:21.104Z,59.58
2023-04-02T09:32:19.803Z,60.55
2023-04-02T09:33:20.045Z,59.27
2023-04-02T09:34:19.939Z,59.10
2023-04-02T09:35:26.090Z,59.26
2023-04-02T09:36:22.040Z,58.15
2023-04-02T09:37:20.116Z,58.60
2023-04-02T09:38:19.922Z,59.63
2023-04-02T09:39:19.729Z,57.67
2023-04-02T09:40:19.650Z,56.47
2023-04-02T09:41:19.770Z,57.82
2023-04-02T09:42:19.901Z,58.66
2023-04-02T09:43:20.163Z,58.56
2023-04-02T09:44:20.027Z,58.41
2023-04-02T09:45:19.990Z,58.91
2023-04-02T09:46:20.491Z,58.24
2023-04-02T09:47:19.983Z,58.90
2023-04-02T09:48:19.775Z,61.41
2023-04-02T09:49:20.061Z,58.58
2023-04-02T09:50:20.011Z,60.13
2023-04-02T09:51:20.105Z,60.54
2023-04-02T09:52:20.076Z,60.24
2023-04-02T09:53:19.730Z,58.91
2023-04-02T09:54:19.942Z,60.34
2023-04-02T09:55:19.779Z,58.72
2023-04-02T09:56:21.000Z,57.96
2023-04-02T09:57:20.318Z,58.96
2023-04-02T09:58:19.754Z,59.68
2023-04-02T09:59:20.080Z,59.09
2023-04-02T10:00:39.677Z,59.10
2023-04-02T10:01:21.640Z,60.24
2023-04-02T10:02:19.874Z,58.18
2023-04-02T10:06:19.343Z,59.14
2023-04-02T10:07:18.164Z,60.06
2023-04-02T10:08:18.078Z,59.47
2023-04-02T10:09:26.563Z,57.02
2023-04-02T10:13:21.597Z,58.17
2023-04-02T10:14:21.549Z,56.42
2023-04-02T10:15:21.114Z,57.47
2023-04-02T10:16:23.887Z,57.62
2023-04-02T10:17:21.689Z,59.36
2023-04-02T10:18:21.447Z,59.35
2023-04-02T10:19:21.672Z,59.28
2023-04-02T10:20:21.316Z,58.27
2023-04-02T10:21:21.571Z,57.83
2023-04-02T10:22:22.707Z,56.05
2023-04-02T10:23:21.215Z,58.26
2023-04-02T10:24:21.271Z,58.52
2023-04-02T10:25:21.184Z,58.44
2023-04-02T10:26:21.689Z,58.54
2023-04-02T10:31:36.334Z,58.89
2023-04-02T10:32:36.346Z,59.28
2023-04-02T10:33:36.420Z,58.42
2023-04-02T10:34:36.193Z,57.64
2023-04-02T10:35:36.300Z,58.37
2023-04-02T10:36:36.010Z,60.21
2023-04-02T10:37:36.049Z,59.32
2023-04-02T10:38:36.258Z,58.81
2023-04-02T10:39:36.456Z,59.39
2023-04-02T10:40:36.105Z,58.78
2023-04-02T10:41:36.592Z,58.60
2023-04-02T10:54:06.625Z,60.35
2023-04-02T11:53:58.610Z,57.88
2023-04-02T12:06:37.243Z,55.40
2023-04-02T12:07:36.601Z,57.19
2023-04-02T12:08:47.293Z,57.91
2023-04-02T12:10:07.269Z,58.61
2023-04-02T12:10:37.031Z,57.64
2023-04-02T12:11:36.916Z,56.91
2023-04-02T12:12:36.709Z,56.69
2023-04-02T12:13:36.901Z,58.11
2023-04-02T12:14:36.874Z,58.71
2023-04-02T12:15:36.956Z,54.35
2023-04-02T12:16:37.064Z,56.23
2023-04-02T12:17:37.006Z,57.31
2023-04-02T12:18:36.891Z,58.93
2023-04-02T12:19:36.832Z,56.94
2023-04-02T12:20:37.060Z,58.28
2023-04-02T12:21:37.374Z,58.18
2023-04-02T12:22:36.770Z,58.93
2023-04-02T12:23:36.642Z,58.47
2023-04-02T12:24:36.580Z,57.67
2023-04-02T12:25:37.229Z,56.73
2023-04-02T12:26:36.636Z,56.37
2023-04-02T12:32:22.967Z,57.55
2023-04-02T12:33:23.224Z,58.95
2023-04-02T12:34:23.088Z,57.86
2023-04-02T12:35:23.933Z,57.68
2023-04-02T12:36:23.313Z,57.97
2023-04-02T12:37:23.109Z,54.80
2023-04-02T12:38:23.442Z,57.91
2023-04-02T12:39:23.932Z,58.29
2023-04-02T12:40:23.173Z,58.84
2023-04-02T12:41:22.963Z,58.07
2023-04-02T12:42:22.986Z,56.82
2023-04-02T12:43:22.929Z,54.94
2023-04-02T12:44:24.069Z,56.93
2023-04-02T12:45:22.845Z,55.84
2023-04-02T12:46:23.227Z,56.54
2023-04-02T12:47:23.312Z,56.02
2023-04-02T12:48:23.146Z,55.97
2023-04-02T12:49:23.061Z,56.11
2023-04-02T12:50:23.196Z,56.47
2023-04-02T12:51:23.238Z,54.90
2023-04-02T12:52:23.068Z,57.32
2023-04-02T12:53:23.011Z,57.47
2023-04-02T12:54:23.120Z,59.12
2023-04-02T12:55:22.939Z,55.30
2023-04-02T12:56:22.662Z,56.35
2023-04-02T12:57:23.213Z,58.71
2023-04-02T12:58:23.402Z,55.89
2023-04-02T13:18:53.271Z,57.09
2023-04-02T13:19:11.101Z,57.08
2023-04-02T13:48:56.817Z,57.79
2023-04-02T13:49:57.431Z,56.60
2023-04-02T14:18:43.698Z,52.27
2023-04-02T14:19:43.320Z,54.48
2023-04-02T14:31:51.882Z,54.34
2023-04-02T14:32:52.174Z,53.33
2023-04-02T14:33:52.073Z,53.55
2023-04-02T14:34:51.990Z,53.46
2023-04-02T14:35:51.887Z,53.10
2023-04-02T14:36:52.237Z,54.47
2023-04-02T14:41:59.439Z,52.28
2023-04-02T14:42:59.745Z,55.83
2023-04-02T14:49:55.470Z,52.69
2023-04-02T14:50:55.529Z,55.09
2023-04-02T14:51:55.453Z,53.66
2023-04-02T14:52:55.257Z,53.04
2023-04-02T14:53:55.391Z,56.68
2023-04-02T14:54:55.100Z,54.70
2023-04-02T14:55:55.546Z,55.35
2023-04-02T14:56:55.337Z,57.56
2023-04-02T14:57:55.421Z,54.50
2023-04-02T14:58:55.415Z,54.51
2023-04-02T14:59:55.841Z,53.54
2023-04-02T15:00:55.827Z,54.16
2023-04-02T15:01:55.297Z,53.71
2023-04-02T15:02:55.549Z,53.40
2023-04-02T15:03:55.311Z,54.99
2023-04-02T15:04:55.463Z,56.18
2023-04-02T15:05:56.598Z,55.59
2023-04-02T15:06:55.190Z,55.32
2023-04-02T15:07:54.905Z,55.09
2023-04-02T15:09:08.354Z,54.28
2023-04-02T15:09:57.448Z,51.97
2023-04-02T15:10:55.195Z,52.70
2023-04-02T15:11:55.034Z,54.47
2023-04-02T15:12:54.656Z,52.35
2023-04-02T15:13:55.055Z,52.41
2023-04-02T15:14:54.679Z,53.90
2023-04-02T15:15:55.582Z,52.92
2023-04-02T15:16:55.003Z,54.98
2023-04-02T15:17:55.155Z,52.44
2023-04-02T15:18:55.156Z,53.65
2023-04-02T15:22:55.599Z,53.30
2023-04-02T15:23:54.435Z,54.44
2023-04-02T15:24:54.600Z,51.85
2023-04-02T15:25:54.848Z,52.75
2023-04-02T15:26:54.805Z,54.00
2023-04-02T15:27:54.459Z,54.98
2023-04-02T15:28:55.706Z,52.70
2023-04-02T15:29:54.565Z,54.50
2023-04-02T15:30:54.553Z,55.50
2023-04-02T15:31:54.728Z,53.97
2023-04-02T15:32:54.345Z,58.39
2023-04-02T15:33:54.353Z,58.51
2023-04-02T15:34:54.717Z,55.21
2023-04-02T15:35:54.606Z,55.50
2023-04-02T15:36:54.228Z,52.90
2023-04-02T15:37:54.137Z,52.56
2023-04-02T15:38:54.359Z,54.42
2023-04-02T15:39:54.738Z,52.02
2023-04-02T15:40:54.441Z,52.25
2023-04-02T15:41:54.548Z,52.70
2023-04-02T15:42:54.762Z,51.72
2023-04-02T15:43:54.681Z,49.98
2023-04-02T15:44:54.502Z,50.82
2023-04-02T15:45:54.250Z,52.22
2023-04-02T15:46:53.990Z,51.36
2023-04-02T15:47:54.370Z,53.99
2023-04-02T15:48:54.460Z,53.89
2023-04-02T15:49:53.908Z,53.94
2023-04-02T15:50:53.983Z,54.79
2023-04-02T15:51:53.949Z,55.60
2023-04-02T15:52:53.912Z,53.28
2023-04-02T15:53:54.046Z,52.51
2023-04-02T15:54:54.292Z,52.21
2023-04-02T15:55:54.438Z,51.34
2023-04-02T15:56:54.071Z,54.73
2023-04-02T15:57:54.282Z,55.52
2023-04-02T15:58:54.750Z,55.76
2023-04-02T15:59:54.111Z,55.86
2023-04-02T16:00:54.331Z,54.80
2023-04-02T16:01:54.438Z,56.04
2023-04-02T16:02:54.547Z,53.01
2023-04-02T16:03:53.820Z,55.66
2023-04-02T16:04:54.337Z,61.71
2023-04-02T16:05:54.114Z,53.85
2023-04-02T16:06:54.010Z,55.35
2023-04-02T16:07:54.342Z,55.24
2023-04-02T16:08:54.309Z,55.80
2023-04-02T16:09:54.345Z,55.48
2023-04-02T16:10:55.275Z,55.66
2023-04-02T16:11:53.859Z,57.65
2023-04-02T16:12:54.448Z,56.89
2023-04-02T16:13:54.222Z,57.66
2023-04-02T16:14:54.192Z,58.60
2023-04-02T16:15:54.437Z,57.39
2023-04-02T16:16:54.427Z,58.47
2023-04-02T16:17:54.444Z,59.62
2023-04-02T16:18:54.253Z,58.16
2023-04-02T16:19:54.292Z,59.69
2023-04-02T16:20:55.209Z,58.57
2023-04-02T16:21:54.247Z,58.37
2023-04-02T16:23:00.636Z,58.37
2023-04-02T16:23:56.300Z,56.24
2023-04-02T16:24:54.577Z,56.33
2023-04-02T16:25:54.804Z,58.37
2023-04-02T16:26:54.278Z,59.11
2023-04-02T16:27:55.359Z,61.20
2023-04-02T16:28:54.341Z,62.27
2023-04-02T16:29:54.973Z,60.88
2023-04-02T16:30:55.720Z,60.98
2023-04-02T16:31:53.966Z,60.38
2023-04-02T16:32:53.593Z,57.85
2023-04-02T16:33:53.667Z,57.55
2023-04-02T16:34:55.045Z,56.78
2023-04-02T16:35:54.152Z,58.67
2023-04-02T16:36:54.197Z,58.49
2023-04-02T16:37:53.926Z,60.24
2023-04-02T18:49:49.903Z,55.81
2023-04-02T18:50:49.742Z,53.61
2023-04-02T18:51:51.295Z,55.77
2023-04-02T18:52:51.058Z,57.30
2023-04-02T18:53:51.513Z,56.35
2023-04-02T18:54:51.287Z,55.82
2023-04-02T18:55:51.154Z,54.53
2023-04-02T18:56:51.293Z,53.14
2023-04-02T18:57:51.678Z,54.80
2023-04-02T18:58:51.400Z,54.18
2023-04-02T18:59:51.389Z,55.50
2023-04-02T19:00:51.145Z,52.06
2023-04-02T19:01:50.976Z,55.53
2023-04-02T19:02:50.997Z,55.78
2023-04-02T19:03:51.338Z,54.22
2023-04-02T19:04:51.468Z,51.46
2023-04-02T19:05:51.278Z,50.06
2023-04-02T19:06:51.076Z,54.19
2023-04-02T19:07:51.208Z,55.22
2023-04-02T19:08:52.141Z,52.03
2023-04-02T19:09:51.248Z,55.32
2023-04-02T19:10:51.805Z,55.38
2023-04-02T19:11:51.190Z,54.41
2023-04-02T19:12:51.292Z,52.78
2023-04-02T19:13:51.269Z,56.95
2023-04-02T19:14:52.485Z,52.73
2023-04-02T19:15:51.426Z,52.92
2023-04-02T19:16:51.125Z,54.38
2023-04-02T19:17:51.302Z,56.76
2023-04-02T19:18:51.186Z,53.73
2023-04-02T19:19:50.990Z,57.50
2023-04-02T19:20:50.944Z,57.69
2023-04-02T19:22:02.864Z,56.35
2023-04-02T19:22:51.773Z,50.75
2023-04-02T19:23:50.923Z,56.10
2023-04-02T19:24:51.014Z,58.40
2023-04-02T19:25:50.931Z,54.97
2023-04-02T19:26:51.279Z,55.23
2023-04-02T19:27:50.925Z,57.17
2023-04-02T19:28:51.048Z,53.49
2023-04-02T19:29:50.810Z,54.66
2023-04-02T19:30:51.030Z,52.07
2023-04-02T19:31:52.445Z,55.70
2023-04-02T19:32:51.190Z,53.97
2023-04-02T19:33:50.881Z,54.92
2023-04-02T19:34:50.970Z,54.26
2023-04-02T19:35:51.155Z,53.30
2023-04-02T19:36:51.033Z,53.38
2023-04-02T19:37:51.330Z,56.63
2023-04-02T19:38:50.800Z,56.27
2023-04-02T19:39:50.880Z,57.33
2023-04-02T19:40:50.945Z,52.22
2023-04-02T19:41:50.828Z,55.29